Time;durP1;ratioP1;P1;durP2;ratioP2;P2;SDS_P1;SDS_P2;PMS_P1;PMS_P2;Temp;Humidity;BMP_temperature;BMP_pressure;BME280_temperature;BME280_humidity;BME280_pressure;Samples;Min_cycle;Max_cycle;Signal;HPM_P1;HPM_P2
2023/05/23 00:01:57;;;;;;;6.60;4.30;;;;;;;25.23;44.46;99405.25;4260272;33;33522;-65
2023/05/23 00:04:25;;;;;;;9.50;4.47;;;;;;;25.23;44.52;99406.13;4260292;33;33804;-65
2023/05/23 00:06:53;;;;;;;8.35;4.30;;;;;;;25.23;44.48;99399.78;4260353;33;34146;-64
2023/05/23 00:09:21;;;;;;;8.32;4.37;;;;;;;25.23;44.46;99403.38;4260034;33;34180;-65
2023/05/23 00:11:49;;;;;;;6.32;3.97;;;;;;;25.22;44.42;99400.88;4260187;33;34307;-64
2023/05/23 00:14:17;;;;;;;6.85;4.43;;;;;;;25.22;44.41;99400.88;4260237;33;34678;-65
2023/05/23 00:16:45;;;;;;;8.13;5.07;;;;;;;25.21;44.45;99399.22;4260008;33;33815;-64
2023/05/23 00:19:16;;;;;;;7.22;4.25;;;;;;;25.21;44.41;99393.78;4260236;33;34244;-65
2023/05/23 00:21:48;;;;;;;6.18;4.43;;;;;;;25.19;44.48;99396.75;4260173;33;34282;-65
2023/05/23 00:24:17;;;;;;;8.23;4.35;;;;;;;25.18;44.58;99398.66;4260010;33;33858;-65
2023/05/23 00:26:45;;;;;;;9.98;4.37;;;;;;;25.19;44.43;99397.59;4260078;33;34013;-64
2023/05/23 00:29:17;;;;;;;7.25;4.20;;;;;;;25.20;44.34;99398.41;4260119;33;34470;-65
2023/05/23 00:31:45;;;;;;;8.38;4.32;;;;;;;25.19;44.32;99394.84;4258417;33;34562;-65
2023/05/23 00:34:16;;;;;;;6.03;4.00;;;;;;;25.18;44.29;99390.47;4259162;33;34013;-64
2023/05/23 00:36:46;;;;;;;6.15;4.35;;;;;;;25.18;44.31;99397.81;4260168;33;33382;-65
2023/05/23 00:39:20;;;;;;;7.70;4.22;;;;;;;25.18;44.24;99395.06;4259975;33;33961;-64
2023/05/23 00:41:49;;;;;;;8.25;4.60;;;;;;;25.18;44.23;99397.81;4259998;33;34141;-65
2023/05/23 00:44:20;;;;;;;7.28;4.28;;;;;;;25.17;44.24;99396.16;4259782;33;33478;-65
2023/05/23 00:46:53;;;;;;;5.60;4.03;;;;;;;25.17;44.27;99404.34;4258760;33;34673;-64
2023/05/23 00:49:22;;;;;;;6.22;3.78;;;;;;;25.17;44.24;99401.63;4259726;33;33752;-65
2023/05/23 00:51:50;;;;;;;7.30;3.40;;;;;;;25.16;44.14;99402.69;4258758;33;32962;-65
2023/05/23 00:54:22;;;;;;;6.47;4.10;;;;;;;25.15;44.09;99401.06;4259868;33;34781;-64
2023/05/23 00:56:50;;;;;;;7.00;3.90;;;;;;;25.14;44.16;99400.22;4244827;33;33929;-65
2023/05/23 00:59:20;;;;;;;7.32;4.28;;;;;;;25.15;44.07;99403.78;4245520;33;34707;-65
2023/05/23 01:01:48;;;;;;;7.00;4.47;;;;;;;25.15;44.05;99395.59;4244483;33;33807;-65
2023/05/23 01:04:18;;;;;;;5.82;4.07;;;;;;;25.14;43.94;99400.22;4245512;33;34727;-64
2023/05/23 01:06:47;;;;;;;6.00;3.85;;;;;;;25.15;43.96;99401.06;4245449;33;34011;-65
2023/05/23 01:09:16;;;;;;;6.15;4.00;;;;;;;25.14;43.97;99397.50;4232796;33;33836;-64
2023/05/23 01:12:17;;;;;;;5.25;3.10;;;;;;;25.13;43.97;99401.31;4245371;33;34755;-64
2023/05/23 01:15:14;;;;;;;7.68;4.00;;;;;;;25.14;43.96;99394.78;4245327;33;34596;-65
2023/05/23 01:17:54;;;;;;;6.70;3.55;;;;;;;25.10;43.88;99392.78;4236727;33;33057;-65
2023/05/23 01:20:29;;;;;;;5.22;3.65;;;;;;;25.11;43.85;99384.34;4245430;33;33956;-65
2023/05/23 01:22:59;;;;;;;6.05;3.90;;;;;;;25.11;43.87;99388.97;4244228;33;33308;-65
2023/05/23 01:25:58;;;;;;;5.40;3.70;;;;;;;25.09;43.86;99389.22;4245180;33;33631;-64
2023/05/23 01:28:35;;;;;;;7.15;4.00;;;;;;;25.10;43.85;99387.31;4245107;33;34798;-64
2023/05/23 01:31:03;;;;;;;6.72;3.90;;;;;;;25.08;43.81;99379.34;4232534;33;34042;-65
2023/05/23 01:33:31;;;;;;;8.10;4.30;;;;;;;25.07;43.81;99383.16;4245107;33;33444;-65
2023/05/23 01:36:00;;;;;;;5.22;3.50;;;;;;;25.07;43.80;99372.25;4245139;33;34310;-65
2023/05/23 01:38:28;;;;;;;;;;;;;;;25.06;43.80;99380.66;4244342;33;34131;-65
2023/05/23 01:40:55;;;;;;;6.60;3.95;;;;;;;25.16;43.65;99375.41;4245095;33;35081;-64
2023/05/23 01:43:23;;;;;;;5.43;3.53;;;;;;;25.08;43.67;99368.44;4245876;33;34117;-65
2023/05/23 01:45:52;;;;;;;6.75;4.15;;;;;;;25.06;43.76;99369.75;4234246;33;33670;-64
2023/05/23 01:48:20;;;;;;;6.15;3.87;;;;;;;25.04;43.92;99370.00;4233975;33;33875;-65
2023/05/23 01:50:47;;;;;;;6.68;4.03;;;;;;;25.04;43.90;99372.75;4245679;33;34843;-64
2023/05/23 01:53:18;;;;;;;6.07;4.15;;;;;;;25.05;43.80;99377.13;4234055;33;34240;-64
2023/05/23 01:55:46;;;;;;;6.97;4.05;;;;;;;25.04;43.78;99378.19;4245784;33;34654;-64
2023/05/23 01:58:14;;;;;;;8.70;3.87;;;;;;;25.05;43.77;99368.09;4243980;33;34663;-64
2023/05/23 02:00:41;;;;;;;7.57;3.85;;;;;;;25.05;43.78;99368.91;4259730;33;34421;-65
2023/05/23 02:03:10;;;;;;;6.60;3.65;;;;;;;25.06;43.77;99369.75;4261040;33;33126;-65
2023/05/23 02:05:38;;;;;;;6.53;3.80;;;;;;;25.05;43.75;99365.38;4261279;33;33472;-65
2023/05/23 02:08:06;;;;;;;6.68;3.50;;;;;;;25.05;43.75;99368.91;4261010;33;34789;-65
2023/05/23 02:10:37;;;;;;;5.50;3.55;;;;;;;25.04;43.79;99358.22;4260733;33;34701;-65
2023/05/23 02:13:04;;;;;;;6.62;3.62;;;;;;;25.04;43.77;99360.97;4260959;33;34056;-65
2023/05/23 02:15:32;;;;;;;5.80;3.80;;;;;;;25.03;43.84;99356.59;4260781;33;33941;-64
2023/05/23 02:18:01;;;;;;;7.37;3.92;;;;;;;25.03;43.83;99362.88;4260934;33;33763;-64
2023/05/23 02:20:29;;;;;;;;;;;;;;;25.04;43.81;99363.69;4261393;33;33642;-64
2023/05/23 02:22:57;;;;;;;5.50;3.78;;;;;;;25.13;43.52;99360.37;4260944;33;33371;-64
2023/05/23 02:25:25;;;;;;;5.68;3.90;;;;;;;25.06;43.56;99364.28;4261057;33;34106;-65
2023/05/23 02:27:52;;;;;;;5.15;3.65;;;;;;;25.03;43.61;99360.13;4260743;33;34178;-65
2023/05/23 02:30:21;;;;;;;7.20;3.50;;;;;;;25.01;43.61;99356.03;4260874;33;34731;-64
2023/05/23 02:32:48;;;;;;;5.65;3.50;;;;;;;25.01;43.63;99362.31;4260776;33;34386;-65
2023/05/23 02:35:16;;;;;;;5.32;3.35;;;;;;;25.01;43.58;99354.13;4260807;33;33947;-65
2023/05/23 02:37:44;;;;;;;6.12;3.75;;;;;;;25.02;43.60;99357.66;4261082;33;33927;-65
2023/05/23 02:40:11;;;;;;;5.20;3.60;;;;;;;25.02;43.67;99361.22;4271263;33;33935;-64
2023/05/23 02:42:39;;;;;;;7.68;3.35;;;;;;;25.01;43.60;99351.38;4260778;33;33651;-65
2023/05/23 02:45:07;;;;;;;5.00;3.42;;;;;;;25.01;43.60;99356.03;4260709;33;34010;-65
2023/05/23 02:47:35;;;;;;;7.47;3.80;;;;;;;24.99;43.67;99350.78;4260753;33;33651;-64
2023/05/23 02:50:02;;;;;;;8.13;3.42;;;;;;;25.00;43.62;99349.75;4260742;33;34740;-65
2023/05/23 02:52:31;;;;;;;7.93;3.80;;;;;;;24.99;43.63;99353.50;4260511;33;33518;-65
2023/05/23 02:54:59;;;;;;;6.55;3.87;;;;;;;24.99;43.53;99353.50;4260899;33;34811;-65
2023/05/23 02:57:27;;;;;;;5.03;3.15;;;;;;;24.99;43.51;99348.06;4255255;33;34728;-65
2023/05/23 02:59:55;;;;;;;6.82;3.62;;;;;;;25.00;43.48;99347.00;4246512;33;33823;-64
2023/05/23 03:02:22;;;;;;;9.02;3.70;;;;;;;24.99;43.59;99345.31;4246527;33;33114;-65
2023/05/23 03:04:50;;;;;;;7.65;3.83;;;;;;;24.99;43.58;99347.22;4246366;33;33905;-65
2023/05/23 03:07:18;;;;;;;5.93;3.50;;;;;;;24.99;43.52;99342.59;4246346;33;34785;-65
2023/05/23 03:09:54;;;;;;;5.62;3.72;;;;;;;24.99;43.52;99347.22;4246707;33;34640;-65
2023/05/23 03:12:22;;;;;;;7.43;4.15;;;;;;;24.99;43.58;99347.22;4246027;33;34092;-65
2023/05/23 03:14:49;;;;;;;6.25;3.72;;;;;;;24.98;43.58;99342.84;4247666;33;34909;-65
2023/05/23 03:17:17;;;;;;;7.50;3.53;;;;;;;24.98;43.57;99351.03;4260760;33;33903;-65
2023/05/23 03:19:45;;;;;;;5.50;3.67;;;;;;;24.98;43.52;99349.12;4260552;33;34886;-65
2023/05/23 03:22:12;;;;;;;7.87;4.47;;;;;;;24.98;43.51;99351.03;4250757;33;33285;-65
2023/05/23 03:24:41;;;;;;;6.15;3.72;;;;;;;24.97;43.56;99358.41;4246360;33;34097;-64
2023/05/23 03:27:10;;;;;;;5.93;3.70;;;;;;;24.97;43.52;99358.41;4250341;33;33638;-65
2023/05/23 03:29:38;;;;;;;5.70;3.45;;;;;;;24.97;43.48;99355.69;4253031;33;34583;-65
2023/05/23 03:32:06;;;;;;;7.12;4.05;;;;;;;24.96;43.47;99354.03;4259732;33;34265;-64
2023/05/23 03:34:35;;;;;;;8.10;3.97;;;;;;;24.97;43.44;99352.13;4260487;33;33875;-65
2023/05/23 03:37:03;;;;;;;7.00;3.50;;;;;;;24.97;43.41;99346.66;4260526;33;33552;-64
2023/05/23 03:39:30;;;;;;;8.15;4.18;;;;;;;24.97;43.36;99349.41;4259341;33;33943;-64
2023/05/23 03:41:58;;;;;;;7.40;4.10;;;;;;;24.96;43.41;99345.84;4260106;33;34241;-65
2023/05/23 03:44:26;;;;;;;6.65;4.25;;;;;;;24.96;43.36;99345.03;4260428;33;34091;-64
2023/05/23 03:46:54;;;;;;;5.82;3.80;;;;;;;24.96;43.32;99342.28;4260272;33;34633;-64
2023/05/23 03:49:22;;;;;;;7.03;3.80;;;;;;;24.96;43.31;99345.84;4260221;33;33871;-64
2023/05/23 03:51:50;;;;;;;7.22;3.80;;;;;;;24.95;43.32;99344.19;4260592;33;33083;-64
2023/05/23 03:54:17;;;;;;;5.03;3.80;;;;;;;24.95;43.33;99355.13;4260164;33;34818;-68
2023/05/23 03:56:45;;;;;;;5.97;3.58;;;;;;;24.95;43.39;99346.94;4258596;33;33841;-68
2023/05/23 03:59:14;;;;;;;5.28;3.42;;;;;;;24.95;43.49;99349.66;4246238;33;33984;-68
2023/05/23 04:01:42;;;;;;;5.35;3.47;;;;;;;24.94;43.64;99351.53;4246135;33;33050;-68
2023/05/23 04:04:10;;;;;;;7.40;3.87;;;;;;;24.96;43.83;99351.31;4245872;33;33699;-67
2023/05/23 04:06:38;;;;;;;6.30;3.28;;;;;;;24.97;44.08;99355.69;4245478;33;34122;-68
2023/05/23 04:09:05;;;;;;;5.10;3.40;;;;;;;24.98;44.31;99348.31;4245944;33;33965;-68
2023/05/23 04:11:34;;;;;;;5.97;3.60;;;;;;;24.98;44.53;99349.12;4246841;33;34059;-68
2023/05/23 04:14:02;;;;;;;7.43;3.33;;;;;;;24.99;44.68;99348.06;4260082;33;34153;-68
2023/05/23 04:16:31;;;;;;;4.93;3.45;;;;;;;24.99;44.90;99345.31;4260269;33;34630;-68
2023/05/23 04:19:01;;;;;;;5.60;3.92;;;;;;;25.00;45.04;99352.47;4260078;33;34864;-68
2023/05/23 04:21:32;;;;;;;7.15;3.40;;;;;;;25.01;45.01;99345.91;4260322;33;34753;-67
2023/05/23 04:24:00;;;;;;;5.80;3.60;;;;;;;25.02;44.96;99344.84;4259186;33;33977;-68
2023/05/23 04:26:28;;;;;;;5.82;3.47;;;;;;;25.03;44.94;99345.66;4260151;33;33720;-68
2023/05/23 04:28:56;;;;;;;8.38;4.10;;;;;;;25.03;44.96;99349.22;4260328;33;33628;-68
2023/05/23 04:31:24;;;;;;;6.45;3.92;;;;;;;25.04;44.93;99352.78;4260334;33;32805;-67
2023/05/23 04:33:51;;;;;;;8.02;3.58;;;;;;;25.04;44.90;99348.16;4260026;33;34709;-68
2023/05/23 04:36:19;;;;;;;6.50;3.75;;;;;;;25.04;44.88;99342.72;4259983;33;33931;-65
2023/05/23 04:38:48;;;;;;;5.75;3.45;;;;;;;25.05;44.84;99340.81;4258558;33;34123;-65
2023/05/23 04:41:15;;;;;;;7.43;3.62;;;;;;;25.05;44.83;99349.81;4259692;33;33585;-64
2023/05/23 04:43:44;;;;;;;9.13;3.40;;;;;;;25.04;44.76;99353.63;4259760;33;33878;-65
2023/05/23 04:46:12;;;;;;;5.72;3.72;;;;;;;25.06;44.65;99350.63;4259633;33;34469;-64
2023/05/23 04:48:41;;;;;;;7.18;3.78;;;;;;;25.04;44.52;99350.91;4259417;33;33800;-64
2023/05/23 04:51:10;;;;;;;6.70;3.90;;;;;;;25.05;44.46;99355.28;4259747;33;33365;-64
2023/05/23 04:53:39;;;;;;;6.75;4.30;;;;;;;25.05;44.35;99349.81;4259076;33;33892;-64
2023/05/23 04:56:08;;;;;;;5.75;4.03;;;;;;;25.07;44.26;99352.28;4259320;33;34039;-64
2023/05/23 04:58:36;;;;;;;7.15;3.78;;;;;;;25.05;44.30;99351.72;4247432;33;33744;-65
2023/05/23 05:01:05;;;;;;;5.62;3.60;;;;;;;25.04;44.35;99348.16;4245808;33;34123;-67
2023/05/23 05:03:32;;;;;;;5.20;3.62;;;;;;;25.04;44.38;99353.63;4245683;33;34989;-67
2023/05/23 05:06:01;;;;;;;6.87;3.78;;;;;;;25.05;44.44;99349.00;4245636;33;34033;-69
2023/05/23 05:08:28;;;;;;;7.05;4.10;;;;;;;25.04;44.49;99350.91;4245278;33;34587;-68
2023/05/23 05:10:56;;;;;;;6.00;3.42;;;;;;;25.05;44.58;99349.00;4244681;33;33406;-67
2023/05/23 05:13:24;;;;;;;7.32;3.80;;;;;;;25.05;44.71;99351.72;4244469;33;34717;-67
2023/05/23 05:15:52;;;;;;;6.37;3.70;;;;;;;25.04;44.78;99350.91;4245718;33;34785;-67
2023/05/23 05:18:19;;;;;;;5.53;3.22;;;;;;;25.05;44.82;99352.53;4246023;33;34717;-67
2023/05/23 05:20:47;;;;;;;6.00;3.70;;;;;;;25.05;44.82;99357.19;4247337;33;33364;-67
2023/05/23 05:23:15;;;;;;;5.80;3.65;;;;;;;25.07;44.80;99355.03;4247139;33;33835;-67
2023/05/23 05:25:42;;;;;;;6.32;3.70;;;;;;;25.07;44.80;99349.56;4246426;33;33348;-66
2023/05/23 05:28:11;;;;;;;6.60;3.72;;;;;;;25.06;44.78;99342.44;4247177;33;34398;-66
2023/05/23 05:30:39;;;;;;;5.87;3.75;;;;;;;25.05;44.74;99347.09;4247195;33;33082;-67
2023/05/23 05:33:07;;;;;;;6.00;3.60;;;;;;;25.07;44.70;99346.81;4247126;33;33817;-67
2023/05/23 05:35:37;;;;;;;6.15;3.62;;;;;;;25.06;44.68;99353.37;4247108;33;33499;-67
2023/05/23 05:38:05;;;;;;;5.87;3.62;;;;;;;25.05;44.63;99344.34;4247131;33;33952;-66
2023/05/23 05:40:33;;;;;;;4.80;3.40;;;;;;;25.07;44.55;99353.16;4247214;33;34066;-66
2023/05/23 05:43:01;;;;;;;5.57;3.50;;;;;;;25.06;44.49;99347.91;4247059;33;34797;-66
2023/05/23 05:45:29;;;;;;;6.57;3.83;;;;;;;25.07;44.56;99349.56;4247146;33;34712;-68
2023/05/23 05:47:57;;;;;;;11.18;3.92;;;;;;;25.07;44.60;99352.28;4247358;33;33891;-66
2023/05/23 05:50:26;;;;;;;9.40;4.50;;;;;;;25.06;44.67;99347.91;4245807;33;32902;-66
2023/05/23 05:52:53;;;;;;;10.40;4.87;;;;;;;25.07;44.95;99350.41;4247447;33;33931;-67
2023/05/23 05:55:22;;;;;;;15.05;5.85;;;;;;;25.08;45.35;99351.22;4253556;33;34154;-67
2023/05/23 05:57:50;;;;;;;15.30;10.85;;;;;;;25.07;45.72;99355.03;4253149;33;33980;-67
2023/05/23 06:00:19;;;;;;;23.62;18.95;;;;;;;25.09;46.05;99350.19;4252556;33;33605;-66
2023/05/23 06:02:50;;;;;;;25.45;22.77;;;;;;;25.09;46.29;99350.19;4258911;33;33943;-67
2023/05/23 06:05:19;;;;;;;24.37;21.80;;;;;;;25.11;46.43;99348.84;4260987;33;33969;-67
2023/05/23 06:07:47;;;;;;;24.85;21.12;;;;;;;25.10;46.56;99349.94;4261083;33;34526;-66
2023/05/23 06:10:15;;;;;;;20.23;18.23;;;;;;;25.10;46.62;99349.94;4260029;33;33607;-67
2023/05/23 06:12:44;;;;;;;20.48;18.25;;;;;;;25.11;46.69;99348.03;4261000;33;34643;-67
2023/05/23 06:15:13;;;;;;;21.10;16.40;;;;;;;25.12;46.63;99352.41;4261101;33;34764;-67
2023/05/23 06:17:41;;;;;;;18.58;16.42;;;;;;;25.11;46.71;99345.28;4260555;33;33582;-66
2023/05/23 06:20:10;;;;;;;16.95;14.35;;;;;;;25.12;46.75;99342.31;4260883;33;34099;-67
2023/05/23 06:22:38;;;;;;;16.27;14.10;;;;;;;25.12;46.78;99347.75;4259957;33;33955;-67
2023/05/23 06:25:06;;;;;;;15.77;14.15;;;;;;;25.12;46.78;99339.56;4259765;33;33985;-66
2023/05/23 06:27:34;;;;;;;17.33;13.98;;;;;;;25.12;46.68;99346.94;4260310;33;33852;-66
2023/05/23 06:30:05;;;;;;;14.82;12.52;;;;;;;25.12;46.79;99352.41;4260571;33;33567;-67
2023/05/23 06:32:33;;;;;;;14.98;13.15;;;;;;;25.12;46.83;99346.94;4260642;33;33872;-67
2023/05/23 06:35:00;;;;;;;14.38;10.82;;;;;;;25.12;46.79;99347.75;4261010;33;33912;-67
2023/05/23 06:37:28;;;;;;;13.77;10.73;;;;;;;25.12;46.76;99341.47;4260709;33;34308;-66
2023/05/23 06:39:56;;;;;;;12.00;9.30;;;;;;;25.12;46.80;99342.31;4260924;33;33155;-66
2023/05/23 06:42:23;;;;;;;11.48;8.70;;;;;;;25.13;46.81;99346.72;4260741;33;34375;-67
2023/05/23 06:44:52;;;;;;;11.40;8.60;;;;;;;25.12;46.66;99346.94;4260753;33;33717;-67
2023/05/23 06:47:20;;;;;;;16.42;8.55;;;;;;;25.12;46.72;99342.31;4260816;33;34161;-66
2023/05/23 06:49:48;;;;;;;13.25;8.00;;;;;;;25.12;46.77;99339.56;4260741;33;33553;-66
2023/05/23 06:52:15;;;;;;;10.27;7.10;;;;;;;25.11;46.69;99343.38;4260988;33;33936;-66
2023/05/23 06:54:43;;;;;;;9.95;6.87;;;;;;;25.13;46.73;99343.97;4260757;33;34012;-66
2023/05/23 06:57:11;;;;;;;11.12;7.35;;;;;;;25.13;46.69;99332.22;4256849;33;34465;-67
2023/05/23 06:59:39;;;;;;;13.02;7.10;;;;;;;25.13;46.55;99341.25;4246473;33;33325;-67
2023/05/23 07:02:07;;;;;;;9.23;6.68;;;;;;;25.13;46.61;99332.22;4246637;33;34676;-69
2023/05/23 07:04:36;;;;;;;10.45;6.90;;;;;;;25.13;46.57;99335.78;4246841;33;33710;-66
2023/05/23 07:07:04;;;;;;;7.62;5.82;;;;;;;25.15;46.41;99338.25;4246667;33;33854;-66
2023/05/23 07:09:32;;;;;;;8.45;6.40;;;;;;;25.14;46.23;99333.88;4246607;33;33958;-67
2023/05/23 07:12:01;;;;;;;10.73;6.37;;;;;;;25.15;46.32;99335.53;4246406;33;33978;-67
2023/05/23 07:14:29;;;;;;;9.20;5.80;;;;;;;25.17;46.20;99331.47;4246486;33;34001;-67
2023/05/23 07:16:57;;;;;;;9.20;5.82;;;;;;;25.18;45.89;99332.28;4246631;33;33634;-67
2023/05/23 07:19:24;;;;;;;11.10;5.57;;;;;;;25.18;45.72;99322.22;4246618;33;33830;-67
2023/05/23 07:21:52;;;;;;;8.82;5.85;;;;;;;25.19;45.93;99326.59;4246650;33;34635;-67
2023/05/23 07:24:21;;;;;;;10.77;5.97;;;;;;;25.19;45.91;99318.41;4251359;33;33582;-67
2023/05/23 07:26:54;;;;;;;9.57;5.68;;;;;;;25.19;45.72;99315.66;4260799;33;34496;-66
2023/05/23 07:29:22;;;;;;;8.77;6.00;;;;;;;25.19;45.64;99318.41;4260632;33;32834;-66
2023/05/23 07:31:50;;;;;;;8.05;5.30;;;;;;;25.21;45.75;99322.78;4260739;33;33466;-69
2023/05/23 07:34:17;;;;;;;10.00;5.75;;;;;;;25.22;45.86;99329.87;4260300;33;34014;-70
2023/05/23 07:36:46;;;;;;;8.70;5.35;;;;;;;25.22;45.85;99318.97;4260574;33;34126;-69
2023/05/23 07:39:14;;;;;;;10.13;5.40;;;;;;;25.22;45.84;99313.50;4260677;33;33605;-67
2023/05/23 07:41:41;;;;;;;10.25;6.03;;;;;;;25.23;45.80;99326.94;4259551;33;34013;-67
2023/05/23 07:44:09;;;;;;;9.85;5.62;;;;;;;25.23;45.81;99317.88;4260423;33;34713;-67
2023/05/23 07:46:37;;;;;;;8.93;5.65;;;;;;;25.25;45.74;99323.94;4260403;33;33880;-69
2023/05/23 07:49:05;;;;;;;9.48;5.82;;;;;;;25.23;45.76;99316.00;4260706;33;33326;-68
2023/05/23 07:51:33;;;;;;;9.60;5.90;;;;;;;25.26;45.69;99317.41;4260471;33;33932;-70
2023/05/23 07:54:00;;;;;;;9.88;5.70;;;;;;;25.26;45.62;99325.59;4247493;33;34798;-67
2023/05/23 07:56:28;;;;;;;10.10;5.18;;;;;;;25.26;45.59;99315.50;4247571;33;34495;-66
2023/05/23 07:58:56;;;;;;;10.10;5.40;;;;;;;25.26;45.54;99320.13;4247304;33;32345;-67
2023/05/23 08:01:24;;;;;;;10.55;5.78;;;;;;;25.26;45.45;99312.75;4260204;33;34767;-67
2023/05/23 08:03:52;;;;;;;11.12;5.93;;;;;;;25.27;45.50;99317.13;4260293;33;34254;-68
2023/05/23 08:06:20;;;;;;;7.28;5.18;;;;;;;25.28;45.48;99307.87;4260158;33;34101;-67
2023/05/23 08:08:48;;;;;;;8.95;5.35;;;;;;;25.30;45.43;99310.34;4260539;33;33131;-67
2023/05/23 08:11:16;;;;;;;8.23;5.65;;;;;;;25.29;45.43;99301.34;4260481;33;34664;-67
2023/05/23 08:13:43;;;;;;;9.57;5.78;;;;;;;25.30;45.35;99308.44;4260371;33;33938;-67
2023/05/23 08:16:14;;;;;;;9.25;6.00;;;;;;;25.32;45.28;99305.47;4260139;33;33880;-67
2023/05/23 08:18:42;;;;;;;11.18;6.03;;;;;;;25.33;45.30;99302.50;4260466;33;34603;-67
2023/05/23 08:21:09;;;;;;;10.45;5.95;;;;;;;25.33;45.30;99315.34;4260065;33;34615;-67
2023/05/23 08:23:37;;;;;;;8.20;5.22;;;;;;;25.32;45.28;99308.19;4260213;33;33633;-67
2023/05/23 08:26:04;;;;;;;8.48;5.75;;;;;;;25.33;45.25;99309.88;4260125;33;34110;-67
2023/05/23 08:28:33;;;;;;;7.50;5.32;;;;;;;25.34;45.24;99317.78;4260318;33;34038;-67
2023/05/23 08:31:01;;;;;;;8.88;5.25;;;;;;;25.36;45.22;99312.06;4260446;33;33721;-67
2023/05/23 08:33:29;;;;;;;9.50;5.12;;;;;;;25.36;45.36;99309.34;4260298;33;33651;-69
2023/05/23 08:35:57;;;;;;;7.85;5.53;;;;;;;25.37;45.55;99316.47;4260364;33;33964;-67
2023/05/23 08:38:26;;;;;;;10.07;6.10;;;;;;;25.36;45.55;99312.91;4260368;33;33558;-67
2023/05/23 08:40:55;;;;;;;11.02;5.72;;;;;;;25.40;45.65;99316.78;4260084;33;34070;-67
2023/05/23 08:43:23;;;;;;;11.32;5.78;;;;;;;25.40;45.66;99316.78;4247540;33;34071;-67
2023/05/23 08:45:51;;;;;;;14.45;5.70;;;;;;;25.38;45.64;99318.13;4247411;33;33603;-67
2023/05/23 08:48:20;;;;;;;9.70;5.93;;;;;;;25.39;45.56;99306.13;4258925;33;33262;-67
2023/05/23 08:50:48;;;;;;;13.20;6.30;;;;;;;25.41;45.56;99314.87;4259919;33;33928;-67
2023/05/23 08:53:19;;;;;;;9.05;5.95;;;;;;;25.43;45.57;99313.56;4258783;33;34015;-66
2023/05/23 08:55:49;;;;;;;9.98;6.25;;;;;;;25.43;45.59;99315.47;4259857;33;34568;-67
2023/05/23 08:58:19;;;;;;;;;;;;;;;25.43;45.62;99304.53;4266872;33;33487;-67
2023/05/23 09:00:47;;;;;;;9.15;6.15;;;;;;;25.51;45.37;99312.31;4260041;33;35198;-66
2023/05/23 09:03:15;;;;;;;8.68;6.20;;;;;;;25.47;45.49;99311.16;4270575;33;33449;-67
2023/05/23 09:05:43;;;;;;;11.35;6.60;;;;;;;25.45;45.56;99308.66;4247048;33;33971;-67
2023/05/23 09:08:12;;;;;;;10.00;5.85;;;;;;;25.45;45.52;99319.59;4235683;33;33532;-68
2023/05/23 09:10:40;;;;;;;9.13;6.03;;;;;;;25.44;45.58;99317.94;4245854;33;33496;-69
2023/05/23 09:13:09;;;;;;;10.10;5.85;;;;;;;25.42;45.64;99313.81;4245934;33;33750;-70
2023/05/23 09:15:37;;;;;;;8.50;6.05;;;;;;;25.44;45.56;99315.22;4249359;33;34783;-71
2023/05/23 09:18:05;;;;;;;10.30;6.65;;;;;;;25.44;45.52;99311.66;4258531;33;34534;-71
2023/05/23 09:20:33;;;;;;;7.97;6.15;;;;;;;25.43;45.50;99313.56;4259873;33;33578;-70
2023/05/23 09:23:04;;;;;;;10.95;6.00;;;;;;;25.45;45.41;99314.13;4259775;33;33859;-73
2023/05/23 09:25:32;;;;;;;;;;;;;;;25.46;45.37;99314.97;4256891;33;33828;-75
2023/05/23 09:28:00;;;;;;;10.43;6.12;;;;;;;25.55;45.05;99316.16;4244205;33;33414;-73
2023/05/23 09:30:28;;;;;;;8.88;6.12;;;;;;;25.47;45.05;99311.16;4249251;33;34035;-71
2023/05/23 09:32:58;;;;;;;11.38;6.22;;;;;;;25.48;44.98;99312.81;4246640;33;34141;-71
2023/05/23 09:35:29;;;;;;;10.27;6.72;;;;;;;25.46;44.98;99314.97;4259542;33;34746;-73
2023/05/23 09:38:00;;;;;;;11.07;6.50;;;;;;;25.47;44.85;99308.44;4259196;33;33031;-73
2023/05/23 09:40:29;;;;;;;8.27;5.72;;;;;;;25.48;44.69;99323.72;4268526;33;33886;-71
2023/05/23 09:43:04;;;;;;;9.73;5.60;;;;;;;25.49;44.72;99313.63;4258320;33;34599;-72
2023/05/23 09:45:32;;;;;;;8.82;6.57;;;;;;;25.48;44.86;99311.97;4246560;33;33963;-74
2023/05/23 09:48:00;;;;;;;9.40;6.87;;;;;;;25.48;44.68;99315.53;4243938;33;33144;-71
2023/05/23 09:50:32;;;;;;;7.93;5.87;;;;;;;25.48;44.81;99314.72;4233716;33;33949;-72
2023/05/23 09:53:01;;;;;;;10.35;5.82;;;;;;;25.50;44.73;99309.81;4267391;33;34009;-73
2023/05/23 09:55:29;;;;;;;9.68;6.10;;;;;;;25.50;44.83;99307.91;4258998;33;33836;-73
2023/05/23 09:57:58;;;;;;;7.43;5.55;;;;;;;25.51;44.88;99306.00;4259049;33;33085;-73
2023/05/23 10:00:25;;;;;;;7.55;5.93;;;;;;;25.50;44.93;99299.72;4259078;33;34468;-73
2023/05/23 10:03:11;;;;;;;9.60;6.18;;;;;;;25.50;44.93;99307.09;4246168;33;34089;-73
2023/05/23 10:05:52;;;;;;;10.68;5.85;;;;;;;25.53;44.96;99306.59;4260700;33;34394;-73
2023/05/23 10:08:40;;;;;;;14.45;6.40;;;;;;;25.52;44.92;99305.78;4260795;33;33818;-74
2023/05/23 10:11:13;;;;;;;8.02;6.32;;;;;;;25.56;44.89;99301.44;4271477;33;33730;-72
2023/05/23 10:13:45;;;;;;;10.38;7.32;;;;;;;25.53;44.97;99304.69;4261125;33;34060;-73
2023/05/23 10:16:37;;;;;;;9.52;6.25;;;;;;;25.53;45.03;99304.69;4259907;33;34214;-72
2023/05/23 10:19:25;;;;;;;9.93;6.10;;;;;;;25.55;44.96;99302.50;4259739;33;33260;-72
2023/05/23 10:22:03;;;;;;;10.98;6.65;;;;;;;25.55;44.64;99286.13;4259865;33;33966;-72
2023/05/23 10:24:31;;;;;;;8.73;6.45;;;;;;;25.56;44.56;99296.00;4245499;33;33979;-71
2023/05/23 10:26:59;;;;;;;10.63;6.60;;;;;;;25.56;44.62;99287.78;4258207;33;33802;-71
2023/05/23 10:29:26;;;;;;;9.25;6.75;;;;;;;25.58;44.58;99291.09;4268259;33;34388;-75
2023/05/23 10:31:55;;;;;;;9.32;6.30;;;;;;;25.60;44.61;99283.47;4248686;33;33817;-75
2023/05/23 10:34:34;;;;;;;9.13;7.20;;;;;;;25.61;44.46;99276.94;4252143;33;34805;-74
2023/05/23 10:37:03;;;;;;;11.80;7.12;;;;;;;25.62;44.41;99275.84;4262191;33;33889;-74
2023/05/23 10:40:09;;;;;;;10.43;7.03;;;;;;;25.64;44.47;99279.13;4264134;33;33018;-73
2023/05/23 10:42:58;;;;;;;9.73;6.80;;;;;;;25.62;44.49;99267.66;4216807;33;33936;-74
2023/05/23 10:45:26;;;;;;;9.60;6.75;;;;;;;25.64;44.20;99273.66;4211719;33;33153;-72
2023/05/23 10:47:54;;;;;;;8.27;6.28;;;;;;;25.62;44.29;99275.03;4243341;33;33713;-75
2023/05/23 10:50:35;;;;;;;8.48;6.12;;;;;;;25.61;44.36;99267.91;4259705;33;33219;-74
2023/05/23 10:53:04;;;;;;;10.38;6.53;;;;;;;25.63;44.32;99272.03;4259073;33;33661;-75
2023/05/23 10:55:32;;;;;;;8.85;6.57;;;;;;;25.63;44.27;99274.75;4256523;33;34197;-73
2023/05/23 10:58:11;;;;;;;8.77;6.68;;;;;;;25.62;44.34;99269.56;4249067;33;33803;-75
2023/05/23 11:00:53;;;;;;;9.03;6.03;;;;;;;25.64;44.30;99265.47;4252318;33;33700;-74
2023/05/23 11:03:32;;;;;;;9.27;6.47;;;;;;;25.64;44.21;99262.75;4246112;33;33786;-75
2023/05/23 11:06:01;;;;;;;11.43;6.30;;;;;;;25.66;44.18;99255.13;4259604;33;34445;-74
2023/05/23 11:08:40;;;;;;;8.10;6.68;;;;;;;25.65;44.21;99256.22;4235218;33;35120;-73
2023/05/23 11:11:15;;;;;;;8.55;6.40;;;;;;;25.68;44.16;99257.59;4248692;33;33320;-74
2023/05/23 11:13:52;;;;;;;10.15;6.72;;;;;;;25.67;44.28;99250.50;4260279;33;33804;-74
2023/05/23 11:16:38;;;;;;;10.00;6.97;;;;;;;25.70;44.20;99244.53;4259954;33;34155;-73
2023/05/23 11:19:18;;;;;;;10.82;6.55;;;;;;;25.68;44.27;99241.22;4260147;33;33857;-73
2023/05/23 11:22:00;;;;;;;8.07;6.37;;;;;;;25.72;44.21;99247.81;4259966;33;34227;-75
2023/05/23 11:24:47;;;;;;;8.50;6.40;;;;;;;25.73;44.23;99238.53;4260583;33;34289;-74
2023/05/23 11:27:15;;;;;;;9.45;5.90;;;;;;;25.74;44.19;99240.22;4259794;33;34764;-74
2023/05/23 11:29:42;;;;;;;7.15;5.68;;;;;;;25.73;43.55;99233.06;4259716;33;34752;-75
2023/05/23 11:32:11;;;;;;;8.05;6.07;;;;;;;25.73;43.38;99232.25;4246737;33;33278;-73
2023/05/23 11:34:44;;;;;;;8.65;5.68;;;;;;;25.74;42.88;99233.91;4260281;33;34553;-73
2023/05/23 11:37:11;;;;;;;7.22;5.60;;;;;;;25.75;42.83;99221.91;4260367;33;33660;-75
2023/05/23 11:39:39;;;;;;;7.32;5.57;;;;;;;25.76;42.89;99218.13;4257517;33;33814;-73
2023/05/23 11:42:07;;;;;;;9.20;5.60;;;;;;;25.78;42.64;99215.94;4259349;33;33526;-74
2023/05/23 11:44:34;;;;;;;7.05;5.57;;;;;;;25.76;42.77;99218.13;4259451;33;34780;-72